sensor_id;sensor_type;location;lat;lon;timestamp;P1;durP1;ratioP1;P2;durP2;ratioP2
31760;SDS011;18335;51.486;7.562;2023-04-30T00:00:39;16.17;;;7.25;;
31760;SDS011;18335;51.486;7.562;2023-04-30T00:03:07;13.35;;;6.88;;
31760;SDS011;18335;51.486;7.562;2023-04-30T00:05:33;16.05;;;8.32;;
31760;SDS011;18335;51.486;7.562;2023-04-30T00:08:00;15.63;;;7.45;;
31760;SDS011;18335;51.486;7.562;2023-04-30T00:10:27;11.65;;;6.53;;
31760;SDS011;18335;51.486;7.562;2023-04-30T00:12:53;11.77;;;6.63;;
31760;SDS011;18335;51.486;7.562;2023-04-30T00:15:21;13.95;;;7.10;;
31760;SDS011;18335;51.486;7.562;2023-04-30T00:17:48;16.98;;;8.82;;
31760;SDS011;18335;51.486;7.562;2023-04-30T00:20:16;16.50;;;9.75;;
31760;SDS011;18335;51.486;7.562;2023-04-30T00:22:43;19.48;;;9.32;;
31760;SDS011;18335;51.486;7.562;2023-04-30T00:25:10;14.18;;;8.68;;
31760;SDS011;18335;51.486;7.562;2023-04-30T00:27:37;15.23;;;8.48;;
31760;SDS011;18335;51.486;7.562;2023-04-30T00:30:04;17.50;;;9.77;;
31760;SDS011;18335;51.486;7.562;2023-04-30T00:32:32;16.45;;;9.38;;
31760;SDS011;18335;51.486;7.562;2023-04-30T00:34:58;17.48;;;8.43;;
31760;SDS011;18335;51.486;7.562;2023-04-30T00:37:26;14.98;;;7.88;;
31760;SDS011;18335;51.486;7.562;2023-04-30T00:39:53;15.60;;;7.53;;
31760;SDS011;18335;51.486;7.562;2023-04-30T00:42:20;16.48;;;7.80;;
31760;SDS011;18335;51.486;7.562;2023-04-30T00:44:47;17.27;;;8.30;;
31760;SDS011;18335;51.486;7.562;2023-04-30T00:47:14;13.30;;;7.18;;
31760;SDS011;18335;51.486;7.562;2023-04-30T00:49:41;13.13;;;7.20;;
31760;SDS011;18335;51.486;7.562;2023-04-30T00:52:07;16.33;;;8.30;;
31760;SDS011;18335;51.486;7.562;2023-04-30T00:54:35;15.70;;;7.85;;
31760;SDS011;18335;51.486;7.562;2023-04-30T00:57:02;12.48;;;6.85;;
31760;SDS011;18335;51.486;7.562;2023-04-30T00:59:31;14.85;;;7.40;;
31760;SDS011;18335;51.486;7.562;2023-04-30T01:01:58;15.35;;;7.25;;
31760;SDS011;18335;51.486;7.562;2023-04-30T01:04:26;13.30;;;7.40;;
31760;SDS011;18335;51.486;7.562;2023-04-30T01:06:54;16.20;;;7.55;;
31760;SDS011;18335;51.486;7.562;2023-04-30T01:09:21;15.63;;;7.85;;
31760;SDS011;18335;51.486;7.562;2023-04-30T01:11:51;13.77;;;6.82;;
31760;SDS011;18335;51.486;7.562;2023-04-30T01:14:26;13.95;;;8.23;;
31760;SDS011;18335;51.486;7.562;2023-04-30T01:16:59;14.35;;;6.65;;
31760;SDS011;18335;51.486;7.562;2023-04-30T01:19:34;14.85;;;7.30;;
31760;SDS011;18335;51.486;7.562;2023-04-30T01:22:07;12.60;;;6.80;;
31760;SDS011;18335;51.486;7.562;2023-04-30T01:24:42;15.93;;;7.38;;
31760;SDS011;18335;51.486;7.562;2023-04-30T01:27:31;14.80;;;6.97;;
31760;SDS011;18335;51.486;7.562;2023-04-30T01:30:35;15.88;;;8.40;;
31760;SDS011;18335;51.486;7.562;2023-04-30T01:33:02;14.25;;;6.85;;
31760;SDS011;18335;51.486;7.562;2023-04-30T01:35:34;15.65;;;7.45;;
31760;SDS011;18335;51.486;7.562;2023-04-30T01:38:19;14.05;;;8.30;;
31760;SDS011;18335;51.486;7.562;2023-04-30T01:40:53;19.08;;;7.63;;
31760;SDS011;18335;51.486;7.562;2023-04-30T01:43:29;15.52;;;7.45;;
31760;SDS011;18335;51.486;7.562;2023-04-30T01:46:08;17.30;;;7.88;;
31760;SDS011;18335;51.486;7.562;2023-04-30T01:48:45;15.27;;;7.10;;
31760;SDS011;18335;51.486;7.562;2023-04-30T01:51:24;14.32;;;7.95;;
31760;SDS011;18335;51.486;7.562;2023-04-30T01:53:56;14.75;;;8.07;;
31760;SDS011;18335;51.486;7.562;2023-04-30T01:56:30;15.55;;;6.82;;
31760;SDS011;18335;51.486;7.562;2023-04-30T01:58:57;15.23;;;7.13;;
31760;SDS011;18335;51.486;7.562;2023-04-30T02:01:28;13.93;;;7.63;;
31760;SDS011;18335;51.486;7.562;2023-04-30T02:03:55;13.07;;;7.05;;
31760;SDS011;18335;51.486;7.562;2023-04-30T02:06:22;12.77;;;7.28;;
31760;SDS011;18335;51.486;7.562;2023-04-30T02:08:52;14.40;;;7.20;;
31760;SDS011;18335;51.486;7.562;2023-04-30T02:11:19;15.90;;;7.88;;
31760;SDS011;18335;51.486;7.562;2023-04-30T02:13:48;14.75;;;7.90;;
31760;SDS011;18335;51.486;7.562;2023-04-30T02:16:15;15.45;;;7.68;;
31760;SDS011;18335;51.486;7.562;2023-04-30T02:18:43;13.60;;;7.45;;
31760;SDS011;18335;51.486;7.562;2023-04-30T02:21:10;15.45;;;7.35;;
31760;SDS011;18335;51.486;7.562;2023-04-30T02:23:37;15.90;;;7.60;;
31760;SDS011;18335;51.486;7.562;2023-04-30T02:26:03;14.07;;;7.47;;
31760;SDS011;18335;51.486;7.562;2023-04-30T02:28:30;14.38;;;7.22;;
31760;SDS011;18335;51.486;7.562;2023-04-30T02:30:57;13.35;;;6.43;;
31760;SDS011;18335;51.486;7.562;2023-04-30T02:33:24;16.02;;;7.05;;
31760;SDS011;18335;51.486;7.562;2023-04-30T02:35:52;19.52;;;8.40;;
31760;SDS011;18335;51.486;7.562;2023-04-30T02:38:19;14.23;;;6.82;;
31760;SDS011;18335;51.486;7.562;2023-04-30T02:40:46;13.48;;;6.55;;
31760;SDS011;18335;51.486;7.562;2023-04-30T02:43:13;13.95;;;6.82;;
31760;SDS011;18335;51.486;7.562;2023-04-30T02:45:39;16.48;;;8.02;;
31760;SDS011;18335;51.486;7.562;2023-04-30T02:48:06;13.55;;;6.63;;
31760;SDS011;18335;51.486;7.562;2023-04-30T02:50:33;21.38;;;9.10;;
31760;SDS011;18335;51.486;7.562;2023-04-30T02:53:01;14.80;;;7.68;;
31760;SDS011;18335;51.486;7.562;2023-04-30T02:55:28;18.08;;;7.30;;
31760;SDS011;18335;51.486;7.562;2023-04-30T02:57:55;15.00;;;7.55;;
31760;SDS011;18335;51.486;7.562;2023-04-30T03:00:22;12.82;;;7.50;;
31760;SDS011;18335;51.486;7.562;2023-04-30T03:02:48;13.10;;;7.43;;
31760;SDS011;18335;51.486;7.562;2023-04-30T03:05:16;17.38;;;8.45;;
31760;SDS011;18335;51.486;7.562;2023-04-30T03:07:43;12.85;;;6.70;;
31760;SDS011;18335;51.486;7.562;2023-04-30T03:10:11;16.67;;;8.40;;
31760;SDS011;18335;51.486;7.562;2023-04-30T03:12:37;15.85;;;7.70;;
31760;SDS011;18335;51.486;7.562;2023-04-30T03:15:05;12.35;;;7.22;;
31760;SDS011;18335;51.486;7.562;2023-04-30T03:17:32;15.80;;;7.18;;
31760;SDS011;18335;51.486;7.562;2023-04-30T03:20:00;11.65;;;6.57;;
31760;SDS011;18335;51.486;7.562;2023-04-30T03:22:27;14.63;;;8.05;;
31760;SDS011;18335;51.486;7.562;2023-04-30T03:24:53;15.00;;;7.95;;
31760;SDS011;18335;51.486;7.562;2023-04-30T03:27:22;13.40;;;6.85;;
31760;SDS011;18335;51.486;7.562;2023-04-30T03:29:48;14.15;;;7.47;;
31760;SDS011;18335;51.486;7.562;2023-04-30T03:32:15;16.27;;;8.10;;
31760;SDS011;18335;51.486;7.562;2023-04-30T03:34:42;14.35;;;8.10;;
31760;SDS011;18335;51.486;7.562;2023-04-30T03:37:08;13.02;;;7.18;;
31760;SDS011;18335;51.486;7.562;2023-04-30T03:39:35;16.30;;;8.35;;
31760;SDS011;18335;51.486;7.562;2023-04-30T03:42:02;16.70;;;8.40;;
31760;SDS011;18335;51.486;7.562;2023-04-30T03:44:30;14.52;;;8.20;;
31760;SDS011;18335;51.486;7.562;2023-04-30T03:46:57;17.95;;;7.95;;
31760;SDS011;18335;51.486;7.562;2023-04-30T03:49:23;16.95;;;8.00;;
31760;SDS011;18335;51.486;7.562;2023-04-30T03:51:51;15.63;;;8.57;;
31760;SDS011;18335;51.486;7.562;2023-04-30T03:54:17;14.30;;;7.57;;
31760;SDS011;18335;51.486;7.562;2023-04-30T03:56:44;14.93;;;7.80;;
31760;SDS011;18335;51.486;7.562;2023-04-30T03:59:11;14.68;;;8.05;;
31760;SDS011;18335;51.486;7.562;2023-04-30T04:01:39;17.13;;;7.85;;
31760;SDS011;18335;51.486;7.562;2023-04-30T04:04:06;14.57;;;7.95;;
31760;SDS011;18335;51.486;7.562;2023-04-30T04:06:34;17.88;;;8.35;;
31760;SDS011;18335;51.486;7.562;2023-04-30T04:09:01;14.82;;;8.57;;
31760;SDS011;18335;51.486;7.562;2023-04-30T04:11:29;15.88;;;8.18;;
31760;SDS011;18335;51.486;7.562;2023-04-30T04:13:56;23.67;;;8.15;;
31760;SDS011;18335;51.486;7.562;2023-04-30T04:16:23;14.73;;;7.95;;
31760;SDS011;18335;51.486;7.562;2023-04-30T04:18:51;14.98;;;8.10;;
31760;SDS011;18335;51.486;7.562;2023-04-30T04:21:19;13.07;;;7.70;;
31760;SDS011;18335;51.486;7.562;2023-04-30T04:23:46;16.58;;;8.68;;
31760;SDS011;18335;51.486;7.562;2023-04-30T04:26:13;17.83;;;8.55;;
31760;SDS011;18335;51.486;7.562;2023-04-30T04:28:40;14.43;;;6.85;;
31760;SDS011;18335;51.486;7.562;2023-04-30T04:31:07;14.25;;;7.15;;
31760;SDS011;18335;51.486;7.562;2023-04-30T04:33:34;16.60;;;7.80;;
31760;SDS011;18335;51.486;7.562;2023-04-30T04:36:03;17.67;;;7.88;;
31760;SDS011;18335;51.486;7.562;2023-04-30T04:38:29;17.02;;;8.05;;
31760;SDS011;18335;51.486;7.562;2023-04-30T04:40:56;15.98;;;8.57;;
31760;SDS011;18335;51.486;7.562;2023-04-30T04:43:23;15.82;;;9.07;;
31760;SDS011;18335;51.486;7.562;2023-04-30T04:45:50;14.60;;;8.60;;
31760;SDS011;18335;51.486;7.562;2023-04-30T04:48:17;15.40;;;8.80;;
31760;SDS011;18335;51.486;7.562;2023-04-30T04:50:44;14.73;;;8.07;;
31760;SDS011;18335;51.486;7.562;2023-04-30T04:53:12;17.35;;;8.10;;
31760;SDS011;18335;51.486;7.562;2023-04-30T04:55:39;18.77;;;10.02;;
31760;SDS011;18335;51.486;7.562;2023-04-30T04:58:06;16.98;;;9.35;;
31760;SDS011;18335;51.486;7.562;2023-04-30T05:00:33;18.30;;;9.90;;
31760;SDS011;18335;51.486;7.562;2023-04-30T05:03:00;19.67;;;9.43;;
31760;SDS011;18335;51.486;7.562;2023-04-30T05:05:26;18.05;;;8.68;;
31760;SDS011;18335;51.486;7.562;2023-04-30T05:07:53;20.75;;;9.90;;
31760;SDS011;18335;51.486;7.562;2023-04-30T05:10:21;19.75;;;10.07;;
31760;SDS011;18335;51.486;7.562;2023-04-30T05:12:48;15.27;;;9.27;;
31760;SDS011;18335;51.486;7.562;2023-04-30T05:15:15;20.80;;;12.77;;
31760;SDS011;18335;51.486;7.562;2023-04-30T05:17:42;16.20;;;9.60;;
31760;SDS011;18335;51.486;7.562;2023-04-30T05:20:10;17.52;;;9.90;;
31760;SDS011;18335;51.486;7.562;2023-04-30T05:22:37;20.70;;;12.60;;
31760;SDS011;18335;51.486;7.562;2023-04-30T05:25:04;20.77;;;11.55;;
31760;SDS011;18335;51.486;7.562;2023-04-30T05:27:33;19.15;;;12.30;;
31760;SDS011;18335;51.486;7.562;2023-04-30T05:30:00;19.33;;;11.30;;
31760;SDS011;18335;51.486;7.562;2023-04-30T05:32:27;20.02;;;11.70;;
31760;SDS011;18335;51.486;7.562;2023-04-30T05:34:54;18.30;;;11.77;;
31760;SDS011;18335;51.486;7.562;2023-04-30T05:37:21;20.92;;;13.00;;
31760;SDS011;18335;51.486;7.562;2023-04-30T05:39:47;22.58;;;12.27;;
31760;SDS011;18335;51.486;7.562;2023-04-30T05:42:14;22.33;;;12.40;;
31760;SDS011;18335;51.486;7.562;2023-04-30T05:44:42;20.20;;;12.15;;
31760;SDS011;18335;51.486;7.562;2023-04-30T05:47:09;20.77;;;12.88;;
31760;SDS011;18335;51.486;7.562;2023-04-30T05:49:36;20.55;;;13.23;;
31760;SDS011;18335;51.486;7.562;2023-04-30T05:52:03;21.27;;;13.52;;
31760;SDS011;18335;51.486;7.562;2023-04-30T05:54:30;23.08;;;14.25;;
31760;SDS011;18335;51.486;7.562;2023-04-30T05:56:57;20.98;;;13.60;;
31760;SDS011;18335;51.486;7.562;2023-04-30T05:59:24;21.77;;;12.23;;
31760;SDS011;18335;51.486;7.562;2023-04-30T06:01:52;19.85;;;12.10;;
31760;SDS011;18335;51.486;7.562;2023-04-30T06:04:19;19.88;;;12.23;;
31760;SDS011;18335;51.486;7.562;2023-04-30T06:06:45;24.13;;;13.70;;
31760;SDS011;18335;51.486;7.562;2023-04-30T06:09:12;21.60;;;12.85;;
31760;SDS011;18335;51.486;7.562;2023-04-30T06:11:38;19.48;;;12.45;;
31760;SDS011;18335;51.486;7.562;2023-04-30T06:14:05;23.40;;;13.18;;
31760;SDS011;18335;51.486;7.562;2023-04-30T06:16:32;20.40;;;13.32;;
31760;SDS011;18335;51.486;7.562;2023-04-30T06:19:00;24.00;;;15.23;;
31760;SDS011;18335;51.486;7.562;2023-04-30T06:21:27;24.10;;;14.18;;
31760;SDS011;18335;51.486;7.562;2023-04-30T06:23:53;20.38;;;14.07;;
31760;SDS011;18335;51.486;7.562;2023-04-30T06:26:20;24.10;;;15.02;;
31760;SDS011;18335;51.486;7.562;2023-04-30T06:28:47;23.52;;;14.35;;
31760;SDS011;18335;51.486;7.562;2023-04-30T06:31:14;22.67;;;12.70;;
31760;SDS011;18335;51.486;7.562;2023-04-30T06:33:41;22.35;;;13.68;;
31760;SDS011;18335;51.486;7.562;2023-04-30T06:36:09;24.80;;;12.98;;
31760;SDS011;18335;51.486;7.562;2023-04-30T06:38:36;21.73;;;12.52;;
31760;SDS011;18335;51.486;7.562;2023-04-30T06:41:02;22.75;;;13.52;;
31760;SDS011;18335;51.486;7.562;2023-04-30T06:43:29;18.60;;;12.18;;
31760;SDS011;18335;51.486;7.562;2023-04-30T06:45:56;22.70;;;13.13;;
31760;SDS011;18335;51.486;7.562;2023-04-30T06:48:23;23.30;;;12.80;;
31760;SDS011;18335;51.486;7.562;2023-04-30T06:50:50;22.77;;;12.32;;
31760;SDS011;18335;51.486;7.562;2023-04-30T06:53:18;20.83;;;12.63;;
31760;SDS011;18335;51.486;7.562;2023-04-30T06:55:45;20.13;;;12.98;;
31760;SDS011;18335;51.486;7.562;2023-04-30T06:58:12;20.77;;;11.38;;
31760;SDS011;18335;51.486;7.562;2023-04-30T07:00:38;24.85;;;12.68;;
31760;SDS011;18335;51.486;7.562;2023-04-30T07:03:05;21.17;;;12.18;;
31760;SDS011;18335;51.486;7.562;2023-04-30T07:05:32;23.08;;;11.80;;
31760;SDS011;18335;51.486;7.562;2023-04-30T07:07:59;20.23;;;11.82;;
31760;SDS011;18335;51.486;7.562;2023-04-30T07:10:29;18.30;;;11.07;;
31760;SDS011;18335;51.486;7.562;2023-04-30T07:12:56;18.90;;;11.50;;
31760;SDS011;18335;51.486;7.562;2023-04-30T07:15:23;20.05;;;12.52;;
31760;SDS011;18335;51.486;7.562;2023-04-30T07:17:50;20.85;;;12.05;;
31760;SDS011;18335;51.486;7.562;2023-04-30T07:20:17;21.67;;;10.93;;
31760;SDS011;18335;51.486;7.562;2023-04-30T07:22:44;18.75;;;11.73;;
31760;SDS011;18335;51.486;7.562;2023-04-30T07:25:11;18.42;;;10.93;;
31760;SDS011;18335;51.486;7.562;2023-04-30T07:27:39;18.45;;;11.65;;
31760;SDS011;18335;51.486;7.562;2023-04-30T07:30:06;17.83;;;11.30;;
31760;SDS011;18335;51.486;7.562;2023-04-30T07:32:34;17.05;;;10.15;;
31760;SDS011;18335;51.486;7.562;2023-04-30T07:35:02;21.20;;;11.75;;
31760;SDS011;18335;51.486;7.562;2023-04-30T07:37:29;18.60;;;9.30;;
31760;SDS011;18335;51.486;7.562;2023-04-30T07:39:56;17.30;;;10.63;;
31760;SDS011;18335;51.486;7.562;2023-04-30T07:42:22;21.17;;;10.30;;
31760;SDS011;18335;51.486;7.562;2023-04-30T07:44:51;16.75;;;9.77;;
31760;SDS011;18335;51.486;7.562;2023-04-30T07:47:18;17.92;;;9.75;;
31760;SDS011;18335;51.486;7.562;2023-04-30T07:49:45;17.48;;;10.63;;
31760;SDS011;18335;51.486;7.562;2023-04-30T07:52:12;17.00;;;10.88;;
31760;SDS011;18335;51.486;7.562;2023-04-30T07:54:38;17.58;;;10.05;;
31760;SDS011;18335;51.486;7.562;2023-04-30T07:57:05;17.98;;;10.95;;
31760;SDS011;18335;51.486;7.562;2023-04-30T07:59:32;17.50;;;9.10;;
31760;SDS011;18335;51.486;7.562;2023-04-30T08:02:00;20.50;;;9.73;;
31760;SDS011;18335;51.486;7.562;2023-04-30T08:04:27;15.05;;;8.98;;
31760;SDS011;18335;51.486;7.562;2023-04-30T08:06:54;16.67;;;8.40;;
31760;SDS011;18335;51.486;7.562;2023-04-30T08:09:20;15.32;;;9.02;;
31760;SDS011;18335;51.486;7.562;2023-04-30T08:11:47;14.30;;;8.35;;
31760;SDS011;18335;51.486;7.562;2023-04-30T08:14:14;14.38;;;8.32;;
31760;SDS011;18335;51.486;7.562;2023-04-30T08:16:40;14.32;;;7.22;;
31760;SDS011;18335;51.486;7.562;2023-04-30T08:19:08;14.68;;;7.80;;
31760;SDS011;18335;51.486;7.562;2023-04-30T08:21:35;14.07;;;8.23;;
31760;SDS011;18335;51.486;7.562;2023-04-30T08:24:03;13.65;;;7.07;;
31760;SDS011;18335;51.486;7.562;2023-04-30T08:26:30;12.15;;;7.22;;
31760;SDS011;18335;51.486;7.562;2023-04-30T08:28:57;12.93;;;7.13;;
31760;SDS011;18335;51.486;7.562;2023-04-30T08:31:23;13.52;;;6.72;;
31760;SDS011;18335;51.486;7.562;2023-04-30T08:33:50;12.95;;;7.15;;
31760;SDS011;18335;51.486;7.562;2023-04-30T08:36:18;16.48;;;8.15;;
31760;SDS011;18335;51.486;7.562;2023-04-30T08:38:45;14.05;;;8.00;;
31760;SDS011;18335;51.486;7.562;2023-04-30T08:41:13;21.00;;;7.90;;
31760;SDS011;18335;51.486;7.562;2023-04-30T08:43:40;15.25;;;7.85;;
31760;SDS011;18335;51.486;7.562;2023-04-30T08:46:08;17.75;;;8.57;;
31760;SDS011;18335;51.486;7.562;2023-04-30T08:48:37;15.80;;;8.13;;
31760;SDS011;18335;51.486;7.562;2023-04-30T08:51:06;13.57;;;7.85;;
31760;SDS011;18335;51.486;7.562;2023-04-30T08:53:35;23.52;;;7.93;;
31760;SDS011;18335;51.486;7.562;2023-04-30T08:56:02;13.50;;;7.13;;
31760;SDS011;18335;51.486;7.562;2023-04-30T08:58:30;11.15;;;6.70;;
31760;SDS011;18335;51.486;7.562;2023-04-30T09:00:57;10.90;;;5.90;;
31760;SDS011;18335;51.486;7.562;2023-04-30T09:03:23;11.00;;;5.28;;
31760;SDS011;18335;51.486;7.562;2023-04-30T09:05:50;10.43;;;5.55;;
31760;SDS011;18335;51.486;7.562;2023-04-30T09:08:17;14.15;;;6.45;;
31760;SDS011;18335;51.486;7.562;2023-04-30T09:11:10;11.80;;;6.28;;
31760;SDS011;18335;51.486;7.562;2023-04-30T09:13:46;10.68;;;6.30;;
31760;SDS011;18335;51.486;7.562;2023-04-30T09:16:14;14.35;;;7.10;;
31760;SDS011;18335;51.486;7.562;2023-04-30T09:18:41;10.75;;;6.30;;
31760;SDS011;18335;51.486;7.562;2023-04-30T09:21:08;15.18;;;6.82;;
31760;SDS011;18335;51.486;7.562;2023-04-30T09:23:35;9.80;;;5.25;;
31760;SDS011;18335;51.486;7.562;2023-04-30T09:26:01;14.45;;;6.70;;
31760;SDS011;18335;51.486;7.562;2023-04-30T09:28:30;13.30;;;6.32;;
31760;SDS011;18335;51.486;7.562;2023-04-30T09:30:56;10.65;;;6.13;;
31760;SDS011;18335;51.486;7.562;2023-04-30T09:33:23;10.98;;;6.38;;
31760;SDS011;18335;51.486;7.562;2023-04-30T09:35:50;13.20;;;6.15;;
31760;SDS011;18335;51.486;7.562;2023-04-30T09:38:27;11.80;;;6.32;;
31760;SDS011;18335;51.486;7.562;2023-04-30T09:40:56;12.55;;;5.93;;
31760;SDS011;18335;51.486;7.562;2023-04-30T09:43:24;12.70;;;6.25;;
31760;SDS011;18335;51.486;7.562;2023-04-30T09:45:52;8.65;;;4.75;;
31760;SDS011;18335;51.486;7.562;2023-04-30T09:48:19;10.43;;;5.80;;
31760;SDS011;18335;51.486;7.562;2023-04-30T09:50:47;12.00;;;6.20;;
31760;SDS011;18335;51.486;7.562;2023-04-30T09:53:14;12.30;;;7.15;;
31760;SDS011;18335;51.486;7.562;2023-04-30T09:55:43;10.98;;;6.60;;
31760;SDS011;18335;51.486;7.562;2023-04-30T09:58:12;11.57;;;5.13;;
31760;SDS011;18335;51.486;7.562;2023-04-30T10:00:39;12.23;;;5.75;;
31760;SDS011;18335;51.486;7.562;2023-04-30T10:03:09;8.77;;;4.97;;
31760;SDS011;18335;51.486;7.562;2023-04-30T10:05:38;8.20;;;3.83;;
31760;SDS011;18335;51.486;7.562;2023-04-30T10:08:09;8.52;;;4.13;;
31760;SDS011;18335;51.486;7.562;2023-04-30T10:10:42;8.82;;;3.83;;
31760;SDS011;18335;51.486;7.562;2023-04-30T10:13:14;8.40;;;4.13;;
31760;SDS011;18335;51.486;7.562;2023-04-30T10:15:47;8.90;;;4.90;;
31760;SDS011;18335;51.486;7.562;2023-04-30T10:18:20;10.15;;;4.93;;
31760;SDS011;18335;51.486;7.562;2023-04-30T10:25:47;11.60;;;5.35;;
31760;SDS011;18335;51.486;7.562;2023-04-30T10:28:16;10.57;;;5.00;;
31760;SDS011;18335;51.486;7.562;2023-04-30T10:30:42;11.75;;;4.45;;
31760;SDS011;18335;51.486;7.562;2023-04-30T10:33:11;13.02;;;5.57;;
31760;SDS011;18335;51.486;7.562;2023-04-30T10:35:48;11.18;;;5.43;;
31760;SDS011;18335;51.486;7.562;2023-04-30T10:38:21;11.27;;;6.05;;
31760;SDS011;18335;51.486;7.562;2023-04-30T10:40:49;9.73;;;4.72;;
31760;SDS011;18335;51.486;7.562;2023-04-30T10:43:16;9.88;;;4.97;;
31760;SDS011;18335;51.486;7.562;2023-04-30T10:45:44;13.25;;;5.05;;
31760;SDS011;18335;51.486;7.562;2023-04-30T10:48:12;9.15;;;5.00;;
31760;SDS011;18335;51.486;7.562;2023-04-30T10:50:41;8.82;;;4.55;;
31760;SDS011;18335;51.486;7.562;2023-04-30T10:53:12;10.98;;;4.95;;
31760;SDS011;18335;51.486;7.562;2023-04-30T10:55:46;10.20;;;5.13;;
31760;SDS011;18335;51.486;7.562;2023-04-30T10:58:23;12.27;;;6.05;;
31760;SDS011;18335;51.486;7.562;2023-04-30T11:00:59;9.65;;;5.20;;
31760;SDS011;18335;51.486;7.562;2023-04-30T11:03:33;12.80;;;6.13;;
31760;SDS011;18335;51.486;7.562;2023-04-30T11:06:06;9.55;;;5.45;;
31760;SDS011;18335;51.486;7.562;2023-04-30T11:08:36;9.80;;;4.93;;
31760;SDS011;18335;51.486;7.562;2023-04-30T11:11:04;10.57;;;5.63;;
31760;SDS011;18335;51.486;7.562;2023-04-30T11:13:40;9.73;;;5.00;;
31760;SDS011;18335;51.486;7.562;2023-04-30T11:16:09;10.40;;;4.90;;
31760;SDS011;18335;51.486;7.562;2023-04-30T11:18:40;8.13;;;3.72;;
31760;SDS011;18335;51.486;7.562;2023-04-30T11:21:07;10.35;;;5.38;;
31760;SDS011;18335;51.486;7.562;2023-04-30T11:23:36;11.48;;;5.95;;
31760;SDS011;18335;51.486;7.562;2023-04-30T11:26:07;11.95;;;5.95;;
31760;SDS011;18335;51.486;7.562;2023-04-30T11:28:36;12.95;;;6.00;;
31760;SDS011;18335;51.486;7.562;2023-04-30T11:31:03;12.25;;;6.30;;
31760;SDS011;18335;51.486;7.562;2023-04-30T11:33:31;11.73;;;6.85;;
31760;SDS011;18335;51.486;7.562;2023-04-30T11:36:00;10.57;;;5.60;;
31760;SDS011;18335;51.486;7.562;2023-04-30T11:38:27;9.27;;;5.03;;
31760;SDS011;18335;51.486;7.562;2023-04-30T11:40:56;10.02;;;5.00;;
31760;SDS011;18335;51.486;7.562;2023-04-30T11:43:25;8.32;;;3.92;;
31760;SDS011;18335;51.486;7.562;2023-04-30T11:46:03;10.07;;;5.30;;
31760;SDS011;18335;51.486;7.562;2023-04-30T11:48:32;9.07;;;5.50;;
31760;SDS011;18335;51.486;7.562;2023-04-30T11:51:03;10.85;;;5.32;;
31760;SDS011;18335;51.486;7.562;2023-04-30T11:53:31;8.77;;;3.55;;
31760;SDS011;18335;51.486;7.562;2023-04-30T11:56:02;8.77;;;3.65;;
31760;SDS011;18335;51.486;7.562;2023-04-30T11:58:33;9.20;;;3.42;;
31760;SDS011;18335;51.486;7.562;2023-04-30T12:01:02;7.57;;;3.80;;
31760;SDS011;18335;51.486;7.562;2023-04-30T12:03:30;8.85;;;4.10;;
31760;SDS011;18335;51.486;7.562;2023-04-30T12:05:57;10.93;;;4.20;;
31760;SDS011;18335;51.486;7.562;2023-04-30T12:08:26;12.65;;;4.72;;
31760;SDS011;18335;51.486;7.562;2023-04-30T12:10:53;11.38;;;5.47;;
31760;SDS011;18335;51.486;7.562;2023-04-30T12:13:22;10.50;;;4.45;;
31760;SDS011;18335;51.486;7.562;2023-04-30T12:15:58;8.43;;;4.25;;
31760;SDS011;18335;51.486;7.562;2023-04-30T12:18:26;10.77;;;4.00;;
31760;SDS011;18335;51.486;7.562;2023-04-30T12:20:53;7.38;;;4.35;;
31760;SDS011;18335;51.486;7.562;2023-04-30T12:23:20;10.52;;;5.25;;
31760;SDS011;18335;51.486;7.562;2023-04-30T12:25:47;10.35;;;4.68;;
31760;SDS011;18335;51.486;7.562;2023-04-30T12:28:15;8.52;;;4.63;;
31760;SDS011;18335;51.486;7.562;2023-04-30T12:30:45;8.55;;;4.13;;
31760;SDS011;18335;51.486;7.562;2023-04-30T12:33:12;7.05;;;3.63;;
31760;SDS011;18335;51.486;7.562;2023-04-30T12:35:41;9.40;;;5.10;;
31760;SDS011;18335;51.486;7.562;2023-04-30T12:38:08;10.00;;;5.72;;
31760;SDS011;18335;51.486;7.562;2023-04-30T12:40:35;9.10;;;4.38;;
31760;SDS011;18335;51.486;7.562;2023-04-30T12:43:03;8.45;;;3.78;;
31760;SDS011;18335;51.486;7.562;2023-04-30T12:45:48;8.80;;;3.53;;
31760;SDS011;18335;51.486;7.562;2023-04-30T12:48:17;5.45;;;2.88;;
31760;SDS011;18335;51.486;7.562;2023-04-30T12:50:51;7.38;;;3.25;;
31760;SDS011;18335;51.486;7.562;2023-04-30T12:53:18;7.13;;;3.30;;
31760;SDS011;18335;51.486;7.562;2023-04-30T12:58:35;6.00;;;3.13;;
31760;SDS011;18335;51.486;7.562;2023-04-30T13:01:03;7.68;;;3.03;;
31760;SDS011;18335;51.486;7.562;2023-04-30T13:03:30;6.82;;;3.20;;
31760;SDS011;18335;51.486;7.562;2023-04-30T13:05:57;7.13;;;3.58;;
31760;SDS011;18335;51.486;7.562;2023-04-30T13:08:26;7.95;;;4.35;;
31760;SDS011;18335;51.486;7.562;2023-04-30T13:10:53;9.20;;;4.30;;
31760;SDS011;18335;51.486;7.562;2023-04-30T13:13:20;7.38;;;3.85;;
31760;SDS011;18335;51.486;7.562;2023-04-30T13:15:47;6.20;;;2.72;;
31760;SDS011;18335;51.486;7.562;2023-04-30T13:18:15;6.57;;;2.80;;
31760;SDS011;18335;51.486;7.562;2023-04-30T13:20:41;7.65;;;3.53;;
31760;SDS011;18335;51.486;7.562;2023-04-30T13:23:08;7.55;;;3.33;;
31760;SDS011;18335;51.486;7.562;2023-04-30T13:25:37;5.40;;;2.70;;
31760;SDS011;18335;51.486;7.562;2023-04-30T13:28:04;8.50;;;3.63;;
31760;SDS011;18335;51.486;7.562;2023-04-30T13:30:31;7.43;;;3.17;;
31760;SDS011;18335;51.486;7.562;2023-04-30T13:32:58;7.28;;;3.05;;
31760;SDS011;18335;51.486;7.562;2023-04-30T13:35:26;5.43;;;1.88;;
31760;SDS011;18335;51.486;7.562;2023-04-30T13:37:53;5.72;;;2.10;;
31760;SDS011;18335;51.486;7.562;2023-04-30T13:40:21;5.80;;;2.20;;
31760;SDS011;18335;51.486;7.562;2023-04-30T13:42:48;7.05;;;2.67;;
31760;SDS011;18335;51.486;7.562;2023-04-30T13:45:15;6.30;;;2.78;;
31760;SDS011;18335;51.486;7.562;2023-04-30T13:47:41;4.90;;;1.85;;
31760;SDS011;18335;51.486;7.562;2023-04-30T13:50:08;4.45;;;1.70;;
31760;SDS011;18335;51.486;7.562;2023-04-30T13:52:37;3.42;;;1.42;;
31760;SDS011;18335;51.486;7.562;2023-04-30T13:55:04;8.57;;;2.83;;
31760;SDS011;18335;51.486;7.562;2023-04-30T13:57:31;3.17;;;1.63;;
31760;SDS011;18335;51.486;7.562;2023-04-30T13:59:58;5.05;;;2.13;;
31760;SDS011;18335;51.486;7.562;2023-04-30T14:02:26;4.75;;;2.15;;
31760;SDS011;18335;51.486;7.562;2023-04-30T14:04:53;4.07;;;2.22;;
31760;SDS011;18335;51.486;7.562;2023-04-30T14:07:19;4.32;;;1.70;;
31760;SDS011;18335;51.486;7.562;2023-04-30T14:09:48;3.55;;;1.58;;
31760;SDS011;18335;51.486;7.562;2023-04-30T14:12:14;8.05;;;2.30;;
31760;SDS011;18335;51.486;7.562;2023-04-30T14:14:42;4.10;;;1.83;;
31760;SDS011;18335;51.486;7.562;2023-04-30T14:17:09;4.75;;;1.60;;
31760;SDS011;18335;51.486;7.562;2023-04-30T14:19:36;3.30;;;1.70;;
31760;SDS011;18335;51.486;7.562;2023-04-30T14:22:02;3.92;;;1.67;;
31760;SDS011;18335;51.486;7.562;2023-04-30T14:24:29;2.97;;;1.15;;
31760;SDS011;18335;51.486;7.562;2023-04-30T14:26:57;5.65;;;1.55;;
31760;SDS011;18335;51.486;7.562;2023-04-30T14:29:26;2.85;;;1.50;;
31760;SDS011;18335;51.486;7.562;2023-04-30T14:31:53;5.68;;;1.42;;
31760;SDS011;18335;51.486;7.562;2023-04-30T14:34:20;3.08;;;0.82;;
31760;SDS011;18335;51.486;7.562;2023-04-30T14:36:46;4.55;;;1.20;;
31760;SDS011;18335;51.486;7.562;2023-04-30T14:39:13;2.80;;;1.30;;
31760;SDS011;18335;51.486;7.562;2023-04-30T14:41:40;4.45;;;1.48;;
31760;SDS011;18335;51.486;7.562;2023-04-30T14:44:08;5.95;;;2.05;;
31760;SDS011;18335;51.486;7.562;2023-04-30T14:46:34;5.20;;;1.88;;
31760;SDS011;18335;51.486;7.562;2023-04-30T14:49:01;3.90;;;1.40;;